Time;durP1;ratioP1;P1;durP2;ratioP2;P2;SDS_P1;SDS_P2;PMS_P1;PMS_P2;Temp;Humidity;BMP_temperature;BMP_pressure;BME280_temperature;BME280_humidity;BME280_pressure;Samples;Min_cycle;Max_cycle;Signal;HPM_P1;HPM_P2
2022/08/08 00:01:42;;;;;;;4.22;1.77;;;;;;;;;;5029452;28;20048;-59
2022/08/08 00:04:12;;;;;;;6.20;1.98;;;;;;;;;;5023990;28;20049;-58
2022/08/08 00:06:44;;;;;;;4.00;1.65;;;;;;;;;;5018994;28;20057;-58
2022/08/08 00:09:15;;;;;;;4.05;1.50;;;;;;;;;;5030295;28;20060;-58
2022/08/08 00:11:43;;;;;;;4.43;1.67;;;;;;;;;;5033833;28;20059;-59
2022/08/08 00:14:14;;;;;;;4.28;1.70;;;;;;;;;;5047343;28;20057;-58
2022/08/08 00:16:43;;;;;;;3.67;1.48;;;;;;;;;;5036256;28;20048;-59
2022/08/08 00:19:14;;;;;;;2.97;1.60;;;;;;;;;;5029824;28;20111;-59
2022/08/08 00:21:42;;;;;;;5.13;1.70;;;;;;;;;;5024311;28;20048;-59
2022/08/08 00:24:13;;;;;;;2.17;1.38;;;;;;;;;;5047372;28;20107;-60
2022/08/08 00:26:43;;;;;;;2.60;1.60;;;;;;;;;;5044704;28;20053;-60
2022/08/08 00:29:14;;;;;;;3.90;1.70;;;;;;;;;;5027629;28;20045;-60
2022/08/08 00:31:43;;;;;;;3.88;1.70;;;;;;;;;;5030342;28;20056;-59
2022/08/08 00:37:13;;;;;;;3.85;1.90;;;;;;;;;;5043647;28;20056;-59
2022/08/08 00:39:44;;;;;;;4.95;1.60;;;;;;;;;;5027861;28;20057;-60
2022/08/08 00:42:21;;;;;;;4.78;1.90;;;;;;;;;;5031635;28;20060;-59
2022/08/08 00:45:02;;;;;;;4.90;1.67;;;;;;;;;;5030654;28;20053;-60
2022/08/08 00:47:50;;;;;;;3.05;1.38;;;;;;;;;;5047340;28;20045;-60
2022/08/08 00:50:40;;;;;;;2.58;1.55;;;;;;;;;;5036291;28;20052;-59
2022/08/08 00:53:15;;;;;;;3.97;1.65;;;;;;;;;;5029919;28;20053;-60
2022/08/08 00:56:00;;;;;;;2.78;1.40;;;;;;;;;;5027256;28;20053;-59
2022/08/08 00:58:45;;;;;;;4.10;1.25;;;;;;;;;;5016337;28;20111;-60
2022/08/08 01:01:14;;;;;;;2.20;1.20;;;;;;;;;;5004984;28;20057;-60
2022/08/08 01:04:05;;;;;;;5.70;1.80;;;;;;;;;;5010473;28;20145;-59
2022/08/08 01:06:48;;;;;;;2.83;1.42;;;;;;;;;;4948479;28;20070;-60
2022/08/08 01:09:30;;;;;;;2.05;1.40;;;;;;;;;;5011673;28;20053;-59
2022/08/08 01:12:22;;;;;;;5.00;1.60;;;;;;;;;;4997396;28;20065;-60
2022/08/08 01:15:07;;;;;;;3.28;1.50;;;;;;;;;;5014966;28;20081;-59
2022/08/08 01:17:40;;;;;;;4.28;1.40;;;;;;;;;;4999549;28;20061;-59
2022/08/08 01:20:22;;;;;;;3.53;1.58;;;;;;;;;;4994459;28;20064;-60
2022/08/08 01:23:09;;;;;;;3.40;1.48;;;;;;;;;;4970776;28;20058;-60
2022/08/08 01:26:00;;;;;;;4.40;1.40;;;;;;;;;;4994725;28;20160;-59
2022/08/08 01:28:38;;;;;;;4.63;1.42;;;;;;;;;;4986480;28;20061;-59
2022/08/08 01:31:22;;;;;;;2.83;1.50;;;;;;;;;;4994611;28;20049;-59
2022/08/08 01:34:19;;;;;;;2.35;1.35;;;;;;;;;;4994380;28;20054;-59
2022/08/08 01:37:09;;;;;;;3.55;1.40;;;;;;;;;;5011828;28;20046;-60
2022/08/08 01:39:46;;;;;;;3.55;1.67;;;;;;;;;;4987740;28;20138;-59
2022/08/08 01:42:18;;;;;;;3.75;1.42;;;;;;;;;;4994398;28;20038;-59
2022/08/08 01:44:52;;;;;;;1.85;1.05;;;;;;;;;;4998744;28;20111;-59
2022/08/08 01:47:23;;;;;;;4.55;1.50;;;;;;;;;;5013681;28;20059;-59
2022/08/08 01:49:55;;;;;;;2.72;1.50;;;;;;;;;;5008709;28;20053;-58
2022/08/08 01:52:34;;;;;;;1.77;1.17;;;;;;;;;;5014496;28;20045;-59
2022/08/08 01:55:07;;;;;;;2.05;1.40;;;;;;;;;;5008959;28;20052;-59
2022/08/08 01:57:38;;;;;;;3.10;1.42;;;;;;;;;;5013653;28;20046;-60
2022/08/08 02:00:10;;;;;;;5.78;1.70;;;;;;;;;;5007479;28;20053;-59
2022/08/08 02:02:44;;;;;;;4.22;1.45;;;;;;;;;;5046293;28;20107;-58
2022/08/08 02:05:21;;;;;;;4.00;1.50;;;;;;;;;;5008251;28;20136;-59
2022/08/08 02:07:57;;;;;;;2.55;1.27;;;;;;;;;;5014542;28;20053;-59
2022/08/08 02:10:33;;;;;;;5.28;1.23;;;;;;;;;;5008381;28;20053;-59
2022/08/08 02:13:01;;;;;;;3.50;1.42;;;;;;;;;;5013289;28;20054;-59
2022/08/08 02:15:32;;;;;;;1.83;1.13;;;;;;;;;;5008438;28;20057;-59
2022/08/08 02:18:03;;;;;;;3.83;1.30;;;;;;;;;;5046675;28;20053;-59
2022/08/08 02:20:35;;;;;;;2.97;1.50;;;;;;;;;;5007335;28;20053;-60
2022/08/08 02:23:08;;;;;;;2.40;1.30;;;;;;;;;;5012579;28;20228;-59
2022/08/08 02:25:40;;;;;;;2.15;1.25;;;;;;;;;;5008093;28;20046;-59
2022/08/08 02:28:10;;;;;;;3.85;1.40;;;;;;;;;;5029477;28;20107;-59
2022/08/08 02:30:41;;;;;;;4.60;1.45;;;;;;;;;;5023848;28;20084;-59
2022/08/08 02:33:20;;;;;;;3.10;1.50;;;;;;;;;;5045929;28;20061;-60
2022/08/08 02:36:00;;;;;;;2.22;1.10;;;;;;;;;;5007270;28;20045;-59
2022/08/08 02:38:50;;;;;;;2.63;1.33;;;;;;;;;;4993628;28;20125;-60
2022/08/08 02:41:34;;;;;;;3.47;1.40;;;;;;;;;;4991996;28;20049;-59
2022/08/08 02:44:13;;;;;;;3.08;1.30;;;;;;;;;;5029530;28;20072;-60
2022/08/08 02:46:45;;;;;;;2.97;1.30;;;;;;;;;;5002591;28;20045;-60
2022/08/08 02:49:23;;;;;;;1.60;1.10;;;;;;;;;;5012790;28;20060;-59
2022/08/08 02:52:08;;;;;;;3.30;1.50;;;;;;;;;;5011993;28;20052;-59
2022/08/08 02:55:02;;;;;;;3.63;1.60;;;;;;;;;;5011310;28;20060;-60
2022/08/08 02:57:49;;;;;;;4.45;1.30;;;;;;;;;;5007692;28;20132;-58
2022/08/08 03:00:41;;;;;;;2.42;1.20;;;;;;;;;;5014210;28;20180;-58
2022/08/08 03:03:26;;;;;;;2.33;1.42;;;;;;;;;;5023748;28;20180;-60
2022/08/08 03:06:10;;;;;;;2.97;1.50;;;;;;;;;;5028328;28;20108;-60
2022/08/08 03:08:59;;;;;;;2.25;1.20;;;;;;;;;;5007489;28;20051;-59
2022/08/08 03:11:43;;;;;;;2.20;1.35;;;;;;;;;;5010884;28;20060;-58
2022/08/08 03:14:22;;;;;;;4.65;1.50;;;;;;;;;;4991231;28;20127;-59
2022/08/08 03:16:48;;;;;;;;;;;;;;;;;;5045175;28;20053;-60
2022/08/08 03:19:33;;;;;;;2.75;1.17;;;;;;;;;;5006791;28;19925;-59
2022/08/08 03:21:59;;;;;;;3.13;1.42;;;;;;;;;;4972300;28;20053;-59
2022/08/08 03:24:27;;;;;;;2.70;1.45;;;;;;;;;;5006752;28;20053;-60
2022/08/08 03:26:56;;;;;;;3.13;1.48;;;;;;;;;;5028481;28;20053;-59
2022/08/08 03:29:27;;;;;;;2.50;1.35;;;;;;;;;;5008706;28;20045;-60
2022/08/08 03:34:40;;;;;;;1.95;1.27;;;;;;;;;;5002855;28;20057;-60
2022/08/08 03:37:09;;;;;;;2.90;1.40;;;;;;;;;;5046446;28;20064;-60
2022/08/08 03:39:37;;;;;;;3.60;1.67;;;;;;;;;;5038863;28;20061;-58
2022/08/08 03:42:04;;;;;;;2.47;1.10;;;;;;;;;;5027957;28;20060;-59
2022/08/08 03:44:33;;;;;;;2.10;1.30;;;;;;;;;;4996559;28;20050;-59
2022/08/08 03:46:59;;;;;;;2.67;1.40;;;;;;;;;;4991765;28;20068;-59
2022/08/08 03:49:26;;;;;;;3.20;1.40;;;;;;;;;;4994467;28;20084;-60
2022/08/08 03:51:53;;;;;;;3.58;1.40;;;;;;;;;;5011132;28;20053;-59
2022/08/08 03:54:21;;;;;;;4.20;1.38;;;;;;;;;;5005943;28;20058;-60
2022/08/08 03:56:49;;;;;;;4.53;1.50;;;;;;;;;;5010969;28;20050;-59
2022/08/08 03:59:16;;;;;;;2.83;1.40;;;;;;;;;;5006365;28;20056;-59
2022/08/08 04:01:42;;;;;;;3.63;1.52;;;;;;;;;;5044524;28;20128;-59
2022/08/08 04:04:10;;;;;;;4.07;1.50;;;;;;;;;;5038805;28;20045;-58
2022/08/08 04:06:37;;;;;;;3.53;1.60;;;;;;;;;;5027631;28;20062;-60
2022/08/08 04:09:05;;;;;;;2.88;1.50;;;;;;;;;;5011202;28;20052;-59
2022/08/08 04:11:32;;;;;;;4.75;1.40;;;;;;;;;;5005542;28;20053;-60
2022/08/08 04:14:02;;;;;;;3.03;1.45;;;;;;;;;;5028307;28;20060;-58
2022/08/08 04:16:28;;;;;;;3.00;1.50;;;;;;;;;;5021659;28;20061;-60
2022/08/08 04:18:55;;;;;;;3.38;1.52;;;;;;;;;;5027241;28;20057;-58
2022/08/08 04:21:22;;;;;;;2.65;1.52;;;;;;;;;;5005590;28;20057;-58
2022/08/08 04:23:49;;;;;;;3.55;1.70;;;;;;;;;;5010708;28;20088;-59
2022/08/08 04:26:15;;;;;;;3.40;1.80;;;;;;;;;;5005271;28;20072;-58
2022/08/08 04:28:42;;;;;;;4.57;1.73;;;;;;;;;;5042392;28;20095;-58
2022/08/08 04:31:10;;;;;;;4.30;1.80;;;;;;;;;;4997709;28;20046;-58
2022/08/08 04:33:37;;;;;;;4.15;1.67;;;;;;;;;;4993400;28;20057;-60
2022/08/08 04:36:03;;;;;;;7.30;2.92;;;;;;;;;;4994090;28;20041;-58
2022/08/08 04:38:30;;;;;;;2.88;1.52;;;;;;;;;;5044296;28;20056;-58
2022/08/08 04:40:56;;;;;;;4.90;1.75;;;;;;;;;;5038324;28;20045;-58
2022/08/08 04:43:25;;;;;;;3.33;1.63;;;;;;;;;;5044530;28;20045;-58
2022/08/08 04:45:51;;;;;;;;;;;;;;;;;;5004274;28;20045;-59
2022/08/08 04:48:19;;;;;;;2.78;1.80;;;;;;;;;;4991359;28;20020;-59
2022/08/08 04:50:46;;;;;;;3.78;1.65;;;;;;;;;;4999780;28;20061;-59
2022/08/08 04:53:13;;;;;;;5.80;2.00;;;;;;;;;;5007486;28;20055;-59
2022/08/08 04:55:40;;;;;;;3.15;1.77;;;;;;;;;;5040483;28;20111;-58
2022/08/08 04:58:06;;;;;;;4.60;2.25;;;;;;;;;;5017434;28;20062;-60
2022/08/08 05:00:33;;;;;;;5.20;1.98;;;;;;;;;;5039304;28;20060;-60
2022/08/08 05:02:59;;;;;;;6.88;2.03;;;;;;;;;;5003879;28;20111;-59
2022/08/08 05:05:27;;;;;;;5.35;2.20;;;;;;;;;;4997985;28;20049;-59
2022/08/08 05:07:54;;;;;;;4.13;2.08;;;;;;;;;;5002744;28;20065;-58
2022/08/08 05:10:21;;;;;;;5.40;2.10;;;;;;;;;;5007318;28;20067;-58
2022/08/08 05:12:47;;;;;;;3.50;1.88;;;;;;;;;;5000640;28;20058;-59
2022/08/08 05:15:14;;;;;;;4.43;2.00;;;;;;;;;;5008861;28;20127;-59
2022/08/08 05:17:40;;;;;;;3.63;1.77;;;;;;;;;;5000730;28;20067;-58
2022/08/08 05:20:08;;;;;;;5.05;2.05;;;;;;;;;;5007926;28;20057;-58
2022/08/08 05:22:36;;;;;;;6.40;2.38;;;;;;;;;;5008371;28;20061;-59
2022/08/08 05:25:06;;;;;;;;;;;;;;;;;;5000669;28;20042;-60
2022/08/08 05:27:33;;;;;;;4.85;1.98;;;;;;;;;;5040959;28;20015;-59
2022/08/08 05:29:59;;;;;;;6.75;2.33;;;;;;;;;;5001059;28;20068;-59
2022/08/08 05:32:26;;;;;;;4.30;2.00;;;;;;;;;;5008715;28;20061;-61
2022/08/08 05:34:58;;;;;;;5.05;2.10;;;;;;;;;;4998600;28;20061;-60
2022/08/08 05:37:26;;;;;;;4.30;2.13;;;;;;;;;;5008918;28;20053;-60
2022/08/08 05:39:55;;;;;;;5.00;2.28;;;;;;;;;;5004319;28;20059;-60
2022/08/08 05:42:26;;;;;;;5.00;2.40;;;;;;;;;;5005583;28;20054;-61
2022/08/08 05:44:53;;;;;;;4.65;2.10;;;;;;;;;;5010382;28;20053;-60
2022/08/08 05:47:20;;;;;;;4.50;2.10;;;;;;;;;;5002877;28;20058;-60
2022/08/08 05:49:50;;;;;;;4.47;2.10;;;;;;;;;;5010195;28;20127;-60
2022/08/08 05:52:17;;;;;;;5.22;2.05;;;;;;;;;;5002814;28;20050;-60
2022/08/08 05:54:43;;;;;;;3.78;1.83;;;;;;;;;;5009911;28;20053;-60
2022/08/08 05:57:14;;;;;;;5.35;2.03;;;;;;;;;;5007088;28;20053;-60
2022/08/08 05:59:42;;;;;;;5.13;2.20;;;;;;;;;;5030501;28;20052;-60
2022/08/08 06:03:09;;;;;;;3.13;1.80;;;;;;;;;;5028144;28;20064;-60
2022/08/08 06:05:04;;;;;;;4.88;1.90;;;;;;;;;;5021722;28;20045;-60
2022/08/08 06:07:32;;;;;;;4.47;1.95;;;;;;;;;;5029965;28;20072;-60
2022/08/08 06:10:01;;;;;;;6.23;2.43;;;;;;;;;;5032362;28;20137;-60
2022/08/08 06:12:29;;;;;;;4.22;1.90;;;;;;;;;;5031243;28;20053;-60
2022/08/08 06:14:57;;;;;;;4.18;1.88;;;;;;;;;;5034748;28;20087;-59
2022/08/08 06:17:23;;;;;;;4.53;1.77;;;;;;;;;;5040894;28;20056;-59
2022/08/08 06:19:50;;;;;;;4.25;2.10;;;;;;;;;;5036919;28;20326;-60
2022/08/08 06:22:17;;;;;;;2.75;1.52;;;;;;;;;;5024888;28;20041;-59
2022/08/08 06:24:43;;;;;;;3.35;1.65;;;;;;;;;;5027189;28;20057;-60
2022/08/08 06:27:10;;;;;;;5.15;1.90;;;;;;;;;;5027381;28;20037;-60
2022/08/08 06:29:44;;;;;;;4.05;1.80;;;;;;;;;;5029121;28;20111;-60
2022/08/08 06:32:14;;;;;;;2.83;1.60;;;;;;;;;;5038085;28;20045;-59
2022/08/08 06:34:45;;;;;;;3.78;1.75;;;;;;;;;;5034931;28;20049;-60
2022/08/08 06:37:13;;;;;;;4.65;1.60;;;;;;;;;;5048953;28;20060;-60
2022/08/08 06:39:43;;;;;;;3.47;1.65;;;;;;;;;;5048872;28;20148;-60
2022/08/08 06:42:12;;;;;;;4.03;1.58;;;;;;;;;;5038877;28;20123;-60
2022/08/08 06:44:41;;;;;;;2.80;1.40;;;;;;;;;;5029244;28;20053;-60
2022/08/08 06:47:07;;;;;;;3.65;1.70;;;;;;;;;;5027102;28;20072;-59
2022/08/08 06:49:34;;;;;;;3.53;1.35;;;;;;;;;;5042751;28;20061;-60
2022/08/08 06:52:01;;;;;;;2.42;1.13;;;;;;;;;;5029240;28;20119;-60
2022/08/08 06:54:30;;;;;;;5.55;1.63;;;;;;;;;;5033225;28;20102;-60
2022/08/08 06:56:58;;;;;;;2.95;1.42;;;;;;;;;;5048756;28;20049;-60
2022/08/08 06:59:24;;;;;;;4.20;1.33;;;;;;;;;;5037066;28;20091;-60
2022/08/08 07:01:53;;;;;;;2.03;1.10;;;;;;;;;;5031378;28;20048;-60
2022/08/08 07:04:23;;;;;;;7.82;1.48;;;;;;;;;;5021583;28;20182;-60
2022/08/08 07:06:50;;;;;;;2.70;1.42;;;;;;;;;;5058742;28;20106;-60
2022/08/08 07:09:18;;;;;;;2.85;1.33;;;;;;;;;;5060576;28;20053;-60
2022/08/08 07:11:49;;;;;;;4.28;1.30;;;;;;;;;;5044141;28;20124;-60
2022/08/08 07:14:17;;;;;;;4.45;1.27;;;;;;;;;;5048255;28;20057;-60
2022/08/08 07:16:49;;;;;;;3.17;1.30;;;;;;;;;;5037086;28;20059;-60
2022/08/08 07:19:24;;;;;;;2.10;1.13;;;;;;;;;;5048559;28;20094;-59
2022/08/08 07:21:56;;;;;;;2.20;1.08;;;;;;;;;;5040484;28;20060;-60
2022/08/08 07:24:25;;;;;;;3.42;1.20;;;;;;;;;;5049738;28;20056;-60
2022/08/08 09:03:37;;;;;;;2.03;0.73;;;;;;;;;;4968067;28;20046;-59
2022/08/08 09:06:04;;;;;;;2.80;1.02;;;;;;;;;;4959718;28;20062;-59
2022/08/08 09:08:31;;;;;;;3.58;0.90;;;;;;;;;;4959154;28;20105;-60
2022/08/08 09:10:58;;;;;;;2.33;0.80;;;;;;;;;;4977256;28;20145;-60
2022/08/08 09:13:38;;;;;;;0.95;0.70;;;;;;;;;;4989103;28;20050;-59
2022/08/08 09:16:05;;;;;;;1.98;0.98;;;;;;;;;;4974828;28;20061;-60
2022/08/08 09:18:32;;;;;;;3.35;0.82;;;;;;;;;;4989895;28;20050;-59
2022/08/08 09:21:01;;;;;;;1.42;0.80;;;;;;;;;;4977256;28;20050;-59
2022/08/08 09:23:30;;;;;;;5.15;0.80;;;;;;;;;;4987291;28;20051;-59
2022/08/08 09:25:58;;;;;;;4.22;0.90;;;;;;;;;;4983103;28;20062;-59
2022/08/08 09:28:25;;;;;;;;;;;;;;;;;;4985502;28;20054;-59
2022/08/08 09:30:53;;;;;;;2.20;0.90;;;;;;;;;;4989730;28;19925;-59
2022/08/08 09:33:23;;;;;;;2.55;0.80;;;;;;;;;;4982099;28;20038;-60
2022/08/08 09:35:50;;;;;;;5.20;0.95;;;;;;;;;;4974735;28;20050;-59
2022/08/08 09:38:24;;;;;;;2.58;0.82;;;;;;;;;;4968714;28;20034;-59
2022/08/08 09:40:51;;;;;;;3.33;1.10;;;;;;;;;;4974994;28;20161;-60
2022/08/08 09:43:27;;;;;;;2.00;1.07;;;;;;;;;;4968418;28;20055;-59
2022/08/08 09:45:58;;;;;;;4.25;0.90;;;;;;;;;;4974650;28;20077;-60
2022/08/08 09:48:29;;;;;;;1.60;0.90;;;;;;;;;;4972457;28;20117;-59
2022/08/08 09:50:57;;;;;;;4.43;0.90;;;;;;;;;;4980582;28;20058;-60
2022/08/08 09:53:29;;;;;;;1.80;0.70;;;;;;;;;;4973481;28;20058;-59
2022/08/08 09:55:55;;;;;;;2.45;0.75;;;;;;;;;;4981898;28;20058;-59
2022/08/08 09:58:22;;;;;;;2.97;1.00;;;;;;;;;;4993069;28;20057;-59
2022/08/08 10:00:49;;;;;;;1.65;0.80;;;;;;;;;;4983020;28;20053;-59
2022/08/08 10:03:17;;;;;;;5.93;1.08;;;;;;;;;;4992103;28;20062;-60
2022/08/08 10:05:46;;;;;;;1.15;0.63;;;;;;;;;;4980838;28;20195;-60
2022/08/08 10:08:16;;;;;;;1.80;0.70;;;;;;;;;;4991268;28;20049;-60
2022/08/08 10:10:45;;;;;;;3.38;1.35;;;;;;;;;;4989056;28;20078;-59
2022/08/08 10:13:19;;;;;;;3.25;1.00;;;;;;;;;;4972481;28;20061;-59
2022/08/08 10:15:47;;;;;;;3.72;0.90;;;;;;;;;;4978982;28;20046;-59
2022/08/08 10:18:23;;;;;;;3.30;1.00;;;;;;;;;;4982055;28;20054;-59
2022/08/08 10:20:52;;;;;;;3.35;0.80;;;;;;;;;;4992509;28;20049;-60
2022/08/08 10:23:22;;;;;;;1.95;0.75;;;;;;;;;;4974602;28;20054;-60
2022/08/08 10:25:51;;;;;;;3.65;1.08;;;;;;;;;;4990018;28;20046;-60
2022/08/08 10:28:20;;;;;;;2.38;0.80;;;;;;;;;;4967428;28;20050;-60
2022/08/08 10:30:58;;;;;;;4.43;1.50;;;;;;;;;;4989318;28;20136;-60
2022/08/08 10:33:29;;;;;;;4.50;0.98;;;;;;;;;;4967153;28;20058;-60
2022/08/08 10:35:56;;;;;;;4.55;0.90;;;;;;;;;;4989740;28;20054;-60
2022/08/08 10:38:23;;;;;;;2.10;0.80;;;;;;;;;;4967399;28;20061;-59
2022/08/08 10:40:52;;;;;;;2.67;1.00;;;;;;;;;;4972451;28;20078;-60
2022/08/08 10:43:18;;;;;;;2.30;0.80;;;;;;;;;;4965738;28;20050;-59
2022/08/08 10:45:48;;;;;;;1.65;1.00;;;;;;;;;;4973370;28;20097;-60
2022/08/08 10:48:14;;;;;;;3.53;1.00;;;;;;;;;;4967368;28;20061;-59
2022/08/08 10:50:41;;;;;;;1.48;0.70;;;;;;;;;;4973217;28;20046;-59
2022/08/08 10:53:08;;;;;;;2.30;0.77;;;;;;;;;;4966672;28;20054;-60
2022/08/08 10:55:41;;;;;;;1.83;0.90;;;;;;;;;;4973186;28;20149;-60
2022/08/08 10:58:09;;;;;;;2.35;0.82;;;;;;;;;;4970857;28;20220;-60
2022/08/08 11:00:41;;;;;;;3.35;0.82;;;;;;;;;;4970848;28;20078;-60
2022/08/08 11:03:12;;;;;;;2.58;0.95;;;;;;;;;;4972619;28;20065;-60
2022/08/08 11:05:43;;;;;;;1.60;0.82;;;;;;;;;;4967522;28;20066;-60
2022/08/08 11:08:19;;;;;;;5.35;0.82;;;;;;;;;;4973887;28;20141;-60
2022/08/08 11:10:45;;;;;;;1.65;0.77;;;;;;;;;;4951077;28;20051;-60
2022/08/08 11:13:18;;;;;;;4.07;1.00;;;;;;;;;;4955061;28;20046;-60
2022/08/08 11:15:45;;;;;;;2.83;0.90;;;;;;;;;;4964595;28;20128;-59
2022/08/08 11:18:11;;;;;;;5.72;1.30;;;;;;;;;;4972676;28;20058;-59
2022/08/08 11:20:39;;;;;;;1.98;1.02;;;;;;;;;;4966082;28;20057;-60
2022/08/08 11:23:06;;;;;;;2.97;0.77;;;;;;;;;;4972548;28;20175;-60
2022/08/08 11:25:33;;;;;;;2.35;0.90;;;;;;;;;;4966914;28;20042;-60
2022/08/08 11:28:02;;;;;;;6.65;0.90;;;;;;;;;;4972316;28;20054;-61
2022/08/08 11:30:32;;;;;;;2.58;1.00;;;;;;;;;;4965651;28;20093;-60
2022/08/08 11:33:02;;;;;;;9.98;1.30;;;;;;;;;;4977679;28;20052;-61
2022/08/08 11:35:29;;;;;;;4.10;1.45;;;;;;;;;;4958383;28;20059;-60
2022/08/08 11:37:55;;;;;;;4.25;0.90;;;;;;;;;;4972229;28;20127;-60
2022/08/08 11:40:22;;;;;;;5.35;1.40;;;;;;;;;;4965559;28;20117;-61
2022/08/08 11:42:50;;;;;;;5.03;1.13;;;;;;;;;;4972222;28;20124;-60
2022/08/08 11:45:17;;;;;;;;;;;;;;;;;;4965542;28;20086;-61
2022/08/08 11:47:45;;;;;;;2.83;1.17;;;;;;;;;;4952212;28;19982;-60
2022/08/08 11:50:13;;;;;;;2.35;1.00;;;;;;;;;;4951477;28;20050;-58
2022/08/08 11:52:40;;;;;;;2.22;0.90;;;;;;;;;;4969855;28;20050;-60
2022/08/08 11:55:14;;;;;;;3.38;1.00;;;;;;;;;;4970639;28;20058;-60
2022/08/08 11:57:41;;;;;;;2.10;0.95;;;;;;;;;;4965569;28;20133;-61
2022/08/08 12:00:08;;;;;;;3.60;1.00;;;;;;;;;;4970964;28;20050;-60
2022/08/08 12:02:46;;;;;;;2.17;0.98;;;;;;;;;;4956630;28;20055;-59
2022/08/08 12:05:13;;;;;;;;;;;;;;;;;;4944364;28;20069;-61
2022/08/08 12:07:46;;;;;;;3.38;1.05;;;;;;;;;;4969845;28;19921;-61
2022/08/08 12:10:14;;;;;;;4.43;1.10;;;;;;;;;;4964089;28;20051;-62
2022/08/08 12:12:41;;;;;;;;;;;;;;;;;;4946818;28;20050;-61
2022/08/08 12:15:08;;;;;;;3.35;1.10;;;;;;;;;;4952426;28;19922;-61
2022/08/08 12:17:35;;;;;;;1.85;0.90;;;;;;;;;;4942180;28;20058;-60
2022/08/08 12:20:04;;;;;;;6.40;0.98;;;;;;;;;;4951239;28;20051;-61
2022/08/08 12:22:32;;;;;;;3.22;0.73;;;;;;;;;;4948201;28;20053;-61
2022/08/08 12:24:59;;;;;;;3.03;0.90;;;;;;;;;;4949718;28;20134;-61
2022/08/08 12:27:36;;;;;;;3.30;1.08;;;;;;;;;;4951784;28;20058;-61
2022/08/08 12:30:03;;;;;;;2.08;0.80;;;;;;;;;;4945454;28;20066;-60
2022/08/08 12:32:40;;;;;;;3.63;1.00;;;;;;;;;;4951802;28;20077;-61
2022/08/08 12:35:08;;;;;;;1.67;0.80;;;;;;;;;;4945463;28;20054;-61
2022/08/08 12:37:35;;;;;;;1.17;0.70;;;;;;;;;;4971229;28;20105;-60
2022/08/08 12:40:11;;;;;;;1.63;0.80;;;;;;;;;;4956604;28;20062;-61
2022/08/08 12:42:43;;;;;;;2.72;1.17;;;;;;;;;;4951741;28;20055;-60
2022/08/08 12:45:16;;;;;;;4.07;1.00;;;;;;;;;;4946788;28;20071;-61
2022/08/08 12:47:43;;;;;;;2.53;0.85;;;;;;;;;;4952672;28;20062;-61
2022/08/08 12:50:11;;;;;;;4.38;0.90;;;;;;;;;;4953204;28;20391;-62
2022/08/08 12:52:38;;;;;;;1.98;0.73;;;;;;;;;;4946198;28;20122;-61
2022/08/08 12:55:08;;;;;;;2.65;0.90;;;;;;;;;;4951749;28;20054;-61
2022/08/08 12:57:35;;;;;;;2.63;0.82;;;;;;;;;;4945765;28;20051;-60
2022/08/08 13:00:02;;;;;;;3.03;0.80;;;;;;;;;;4952138;28;20047;-61
2022/08/08 13:02:29;;;;;;;2.03;0.90;;;;;;;;;;4949407;28;20062;-61
2022/08/08 13:04:58;;;;;;;2.58;0.90;;;;;;;;;;4970642;28;20046;-61
2022/08/08 13:07:37;;;;;;;1.15;0.70;;;;;;;;;;4982649;28;20054;-61
2022/08/08 13:10:07;;;;;;;2.47;0.80;;;;;;;;;;4973677;28;20046;-61
2022/08/08 13:12:35;;;;;;;1.65;0.80;;;;;;;;;;4974956;28;20061;-60
2022/08/08 13:15:02;;;;;;;;;;;;;;;;;;4969220;28;20065;-61
2022/08/08 13:17:30;;;;;;;1.70;0.80;;;;;;;;;;4975776;28;19965;-60
2022/08/08 13:19:57;;;;;;;4.13;0.90;;;;;;;;;;4968981;28;20051;-61
2022/08/08 13:22:23;;;;;;;1.35;0.90;;;;;;;;;;4975395;28;20313;-60
2022/08/08 13:24:51;;;;;;;2.15;0.85;;;;;;;;;;4963380;28;20077;-61
2022/08/08 13:27:19;;;;;;;3.05;0.80;;;;;;;;;;4970830;28;20054;-61
2022/08/08 13:29:50;;;;;;;4.00;1.08;;;;;;;;;;4968811;28;20043;-60
2022/08/08 13:32:16;;;;;;;1.40;0.70;;;;;;;;;;4975584;28;20058;-60
2022/08/08 13:34:43;;;;;;;4.10;0.80;;;;;;;;;;4986170;28;20054;-61
2022/08/08 13:37:10;;;;;;;1.33;0.60;;;;;;;;;;4974435;28;20078;-61
2022/08/08 13:39:37;;;;;;;1.70;0.77;;;;;;;;;;4970686;28;20053;-60
2022/08/08 13:42:06;;;;;;;3.60;0.88;;;;;;;;;;4953029;28;20051;-62
2022/08/08 13:44:32;;;;;;;3.70;0.80;;;;;;;;;;4954220;28;20047;-61
2022/08/08 13:47:00;;;;;;;1.45;0.73;;;;;;;;;;4948602;28;20078;-59
2022/08/08 13:49:29;;;;;;;4.07;0.90;;;;;;;;;;4955077;28;20068;-60
2022/08/08 13:51:59;;;;;;;1.67;0.60;;;;;;;;;;4967561;28;20117;-61
2022/08/08 13:54:29;;;;;;;4.00;0.80;;;;;;;;;;4974721;28;20050;-61
2022/08/08 13:57:03;;;;;;;1.45;0.77;;;;;;;;;;4968587;28;20048;-61
2022/08/08 13:59:32;;;;;;;2.67;0.75;;;;;;;;;;4990652;28;20046;-61
2022/08/08 14:01:59;;;;;;;1.23;0.70;;;;;;;;;;4986504;28;20060;-60
2022/08/08 14:04:26;;;;;;;0.63;0.60;;;;;;;;;;4974454;28;20109;-60
2022/08/08 14:06:58;;;;;;;1.52;0.80;;;;;;;;;;4969089;28;20070;-60
2022/08/08 14:09:29;;;;;;;1.38;0.80;;;;;;;;;;4976647;28;20057;-60
2022/08/08 14:11:57;;;;;;;1.35;0.88;;;;;;;;;;4979030;28;20128;-61
2022/08/08 14:14:35;;;;;;;2.20;0.90;;;;;;;;;;4967306;28;20073;-60
2022/08/08 14:17:02;;;;;;;;;;;;;;;;;;4959811;28;20138;-59
2022/08/08 14:19:32;;;;;;;2.03;0.77;;;;;;;;;;4962961;28;19932;-60
2022/08/08 14:21:59;;;;;;;2.85;0.88;;;;;;;;;;4964180;28;20070;-62
2022/08/08 14:24:31;;;;;;;5.18;0.80;;;;;;;;;;4974749;28;20147;-61
2022/08/08 14:26:58;;;;;;;2.13;0.77;;;;;;;;;;4982097;28;20047;-62
2022/08/08 14:29:26;;;;;;;2.15;0.70;;;;;;;;;;4976205;28;20057;-61
2022/08/08 14:31:54;;;;;;;2.88;0.82;;;;;;;;;;4969130;28;20054;-61
2022/08/08 14:34:21;;;;;;;;;;;;;;;;;;4963237;28;20050;-61
2022/08/08 14:36:48;;;;;;;1.30;0.63;;;;;;;;;;4954142;28;19961;-60
2022/08/08 14:39:17;;;;;;;1.35;0.70;;;;;;;;;;4971958;28;20077;-60
2022/08/08 14:41:45;;;;;;;1.20;0.70;;;;;;;;;;4989814;28;20105;-61
2022/08/08 14:44:13;;;;;;;6.77;1.10;;;;;;;;;;4968017;28;20074;-62
2022/08/08 14:46:39;;;;;;;1.25;0.80;;;;;;;;;;4973895;28;20054;-62
2022/08/08 14:49:11;;;;;;;2.63;0.57;;;;;;;;;;4968635;28;20061;-61
2022/08/08 14:51:39;;;;;;;1.58;0.70;;;;;;;;;;4973459;28;20065;-60
2022/08/08 14:54:05;;;;;;;2.25;0.80;;;;;;;;;;4968716;28;20109;-61
2022/08/08 14:56:34;;;;;;;2.50;0.80;;;;;;;;;;4974237;28;20054;-60
2022/08/08 14:59:00;;;;;;;0.73;0.70;;;;;;;;;;4968852;28;20096;-60
2022/08/08 15:01:27;;;;;;;2.70;0.98;;;;;;;;;;4973054;28;20245;-61
2022/08/08 15:03:55;;;;;;;3.67;0.75;;;;;;;;;;4968494;28;20077;-61
2022/08/08 15:06:23;;;;;;;2.53;1.00;;;;;;;;;;4973346;28;20137;-61
2022/08/08 15:08:50;;;;;;;2.80;0.98;;;;;;;;;;4967430;28;20059;-59
2022/08/08 15:11:17;;;;;;;2.60;0.80;;;;;;;;;;4973183;28;20057;-59
2022/08/08 15:13:46;;;;;;;5.05;0.80;;;;;;;;;;4967455;28;20070;-60
2022/08/08 15:16:14;;;;;;;1.38;0.70;;;;;;;;;;4974097;28;20058;-59
2022/08/08 15:18:40;;;;;;;2.08;1.00;;;;;;;;;;4967553;28;20050;-61
2022/08/08 15:21:07;;;;;;;1.23;0.70;;;;;;;;;;4989314;28;20050;-60
2022/08/08 15:23:38;;;;;;;1.33;0.70;;;;;;;;;;4973554;28;20057;-61
2022/08/08 15:26:04;;;;;;;2.58;0.80;;;;;;;;;;4983257;28;20054;-60
2022/08/08 15:28:31;;;;;;;1.75;0.80;;;;;;;;;;4971632;28;20069;-61
2022/08/08 15:30:57;;;;;;;1.80;0.73;;;;;;;;;;4983783;28;20047;-61
2022/08/08 15:33:24;;;;;;;6.95;1.10;;;;;;;;;;4989051;28;20089;-60
2022/08/08 15:35:53;;;;;;;2.83;1.00;;;;;;;;;;4966793;28;20049;-62
2022/08/08 15:38:20;;;;;;;8.70;1.08;;;;;;;;;;4972498;28;20112;-63
2022/08/08 15:40:48;;;;;;;5.38;1.13;;;;;;;;;;4966639;28;20071;-63
2022/08/08 15:43:15;;;;;;;4.32;1.08;;;;;;;;;;4972935;28;20101;-58
2022/08/08 15:45:43;;;;;;;6.35;1.20;;;;;;;;;;4966840;28;20045;-59
2022/08/08 15:48:10;;;;;;;2.15;0.77;;;;;;;;;;4965843;28;20167;-60
2022/08/08 15:53:22;;;;;;;1.52;0.70;;;;;;;;;;4972772;28;20054;-59
2022/08/08 15:55:50;;;;;;;4.28;0.90;;;;;;;;;;4983537;28;20077;-60
2022/08/08 15:58:17;;;;;;;5.50;1.10;;;;;;;;;;4972648;28;20066;-60
2022/08/08 16:00:43;;;;;;;4.75;1.00;;;;;;;;;;4966283;28;20049;-58
2022/08/08 16:03:18;;;;;;;1.85;0.95;;;;;;;;;;4990594;28;20058;-61
2022/08/08 16:05:45;;;;;;;1.70;0.80;;;;;;;;;;4950657;28;20053;-61
2022/08/08 16:08:11;;;;;;;4.35;1.20;;;;;;;;;;4972864;28;20061;-56
2022/08/08 16:10:39;;;;;;;4.18;0.90;;;;;;;;;;4983215;28;20130;-61
2022/08/08 16:13:06;;;;;;;;;;;;;;;;;;4953318;28;20055;-61
2022/08/08 16:15:35;;;;;;;1.67;0.68;;;;;;;;;;4982439;28;19972;-62
2022/08/08 16:18:02;;;;;;;1.70;0.90;;;;;;;;;;4960117;28;20050;-56
2022/08/08 16:20:29;;;;;;;3.75;0.80;;;;;;;;;;4969183;28;20058;-57
2022/08/08 16:22:55;;;;;;;1.50;0.80;;;;;;;;;;4966113;28;20061;-57
2022/08/08 16:25:23;;;;;;;2.20;0.70;;;;;;;;;;4970479;28;20054;-58
2022/08/08 16:27:50;;;;;;;3.17;0.90;;;;;;;;;;4948085;28;20058;-59
2022/08/08 16:30:20;;;;;;;4.43;0.90;;;;;;;;;;4972394;28;20046;-61
2022/08/08 16:32:50;;;;;;;1.95;0.80;;;;;;;;;;4962209;28;20058;-62
2022/08/08 16:35:17;;;;;;;0.75;0.70;;;;;;;;;;4968578;28;20054;-59
2022/08/08 16:37:43;;;;;;;1.48;0.75;;;;;;;;;;4965400;28;20078;-60
2022/08/08 16:40:11;;;;;;;1.63;0.80;;;;;;;;;;4969960;28;20042;-60
2022/08/08 16:42:37;;;;;;;1.85;0.80;;;;;;;;;;4966088;28;20058;-60
2022/08/08 16:45:05;;;;;;;1.20;0.80;;;;;;;;;;4971695;28;20054;-61
2022/08/08 16:47:32;;;;;;;1.73;0.80;;;;;;;;;;4957760;28;20054;-58
2022/08/08 16:50:01;;;;;;;2.88;1.00;;;;;;;;;;4972919;28;20058;-59